Time;durP1;ratioP1;P1;durP2;ratioP2;P2;SDS_P1;SDS_P2;PMS_P1;PMS_P2;Temp;Humidity;BMP_temperature;BMP_pressure;BME280_temperature;BME280_humidity;BME280_pressure;Samples;Min_cycle;Max_cycle;Signal;HPM_P1;HPM_P2
2021/10/18 00:02:17;;;;;;;31.33;12.85;;;7.90;99.90;;;;;;5055832;28;20089;-67
2021/10/18 00:04:43;;;;;;;28.92;12.88;;;7.90;99.90;;;;;;5053385;28;20059;-68
2021/10/18 00:07:09;;;;;;;30.52;12.43;;;7.90;99.90;;;;;;5054469;28;20484;-68
2021/10/18 00:09:34;;;;;;;37.42;13.40;;;8.00;99.90;;;;;;5055288;28;20047;-67
2021/10/18 00:12:00;;;;;;;31.08;12.43;;;7.90;99.90;;;;;;5057542;28;20396;-67
2021/10/18 00:14:26;;;;;;;38.97;14.15;;;7.90;99.90;;;;;;5054345;28;20048;-67
2021/10/18 00:16:51;;;;;;;35.17;14.88;;;7.90;99.90;;;;;;5056441;28;20055;-67
2021/10/18 00:19:17;;;;;;;30.83;13.07;;;7.80;99.90;;;;;;5055550;28;20082;-67
2021/10/18 00:21:43;;;;;;;33.85;13.35;;;7.90;99.90;;;;;;5053643;28;20493;-67
2021/10/18 00:24:08;;;;;;;42.55;15.07;;;7.80;99.90;;;;;;5054267;28;20526;-67
2021/10/18 00:26:34;;;;;;;37.85;13.98;;;7.90;99.90;;;;;;5056520;28;20025;-67
2021/10/18 00:29:00;;;;;;;34.65;13.95;;;7.90;99.90;;;;;;5054142;28;20063;-68
2021/10/18 00:31:26;;;;;;;38.60;14.80;;;7.90;99.90;;;;;;5056811;28;20067;-68
2021/10/18 00:33:51;;;;;;;33.72;13.73;;;7.90;99.90;;;;;;5055034;28;20033;-67
2021/10/18 00:36:17;;;;;;;38.60;14.20;;;7.90;99.90;;;;;;5055466;28;20033;-67
2021/10/18 00:38:43;;;;;;;35.25;14.48;;;7.90;99.90;;;;;;5059286;28;20440;-67
2021/10/18 00:41:09;;;;;;;36.85;13.90;;;7.90;99.90;;;;;;5061286;28;20213;-67
2021/10/18 00:43:35;;;;;;;31.70;13.55;;;7.90;99.90;;;;;;5061293;28;20029;-68
2021/10/18 00:46:01;;;;;;;33.85;12.70;;;7.90;99.90;;;;;;5058759;28;20025;-67
2021/10/18 00:48:27;;;;;;;33.65;13.07;;;7.90;99.90;;;;;;5058633;28;20555;-67
2021/10/18 00:50:56;;;;;;;35.97;14.55;;;7.90;99.90;;;;;;5058678;28;20058;-67
2021/10/18 00:53:25;;;;;;;35.65;14.93;;;7.90;99.90;;;;;;5056336;28;22234;-67
2021/10/18 00:55:51;;;;;;;32.47;13.73;;;7.90;99.90;;;;;;5054905;28;20069;-67
2021/10/18 00:58:17;;;;;;;31.98;12.25;;;7.90;99.90;;;;;;5059799;28;20059;-67
2021/10/18 01:00:42;;;;;;;35.78;13.75;;;7.90;99.90;;;;;;5053803;28;20083;-67
2021/10/18 01:03:08;;;;;;;38.85;14.68;;;8.00;99.90;;;;;;5058733;28;20028;-68
2021/10/18 01:05:36;;;;;;;32.42;13.15;;;8.00;99.90;;;;;;5059979;28;20024;-67
2021/10/18 01:08:02;;;;;;;38.03;14.38;;;8.00;99.90;;;;;;5057763;28;20029;-67
2021/10/18 01:10:28;;;;;;;36.88;13.90;;;8.00;99.90;;;;;;5057998;28;20801;-67
2021/10/18 01:12:53;;;;;;;33.83;13.05;;;8.00;99.90;;;;;;5059627;28;20028;-67
2021/10/18 01:15:19;;;;;;;34.65;13.68;;;8.10;99.90;;;;;;5056063;28;20104;-67
2021/10/18 01:17:45;;;;;;;35.63;14.30;;;8.10;99.90;;;;;;5056288;28;20048;-67
2021/10/18 01:20:14;;;;;;;37.03;14.43;;;8.10;99.90;;;;;;5055942;28;20764;-67
2021/10/18 01:22:40;;;;;;;40.97;15.30;;;8.10;99.90;;;;;;5056927;28;21701;-68
2021/10/18 01:25:06;;;;;;;31.85;14.02;;;8.00;99.90;;;;;;5058947;28;20029;-67
2021/10/18 01:27:32;;;;;;;42.72;15.60;;;8.00;99.90;;;;;;5064684;28;20428;-67
2021/10/18 01:29:57;;;;;;;38.70;15.23;;;8.00;99.90;;;;;;5055742;28;20036;-67
2021/10/18 01:32:23;;;;;;;35.10;14.65;;;8.00;99.90;;;;;;5058430;28;20025;-67
2021/10/18 01:34:49;;;;;;;42.70;15.13;;;8.10;99.90;;;;;;5058663;28;20032;-67
2021/10/18 01:37:14;;;;;;;40.33;14.90;;;8.10;99.90;;;;;;5054700;28;20027;-68
2021/10/18 01:39:40;;;;;;;34.05;13.48;;;8.10;99.90;;;;;;5054578;28;20036;-67
2021/10/18 01:42:06;;;;;;;35.90;15.02;;;8.10;99.90;;;;;;5054914;28;20028;-67
2021/10/18 01:44:32;;;;;;;39.22;14.98;;;8.10;99.90;;;;;;5053219;28;20074;-68
2021/10/18 01:46:57;;;;;;;43.72;16.50;;;8.10;99.90;;;;;;5055843;28;20258;-68
2021/10/18 01:49:23;;;;;;;35.47;14.52;;;8.10;99.90;;;;;;5055800;28;20409;-68
2021/10/18 01:51:49;;;;;;;42.72;16.67;;;8.10;99.90;;;;;;5052197;28;20101;-67
2021/10/18 01:54:15;;;;;;;43.70;16.52;;;8.10;99.90;;;;;;5052635;28;20024;-67
2021/10/18 01:56:41;;;;;;;41.47;14.95;;;8.10;99.90;;;;;;5054550;28;20031;-67
2021/10/18 01:59:07;;;;;;;27.75;13.40;;;8.10;99.90;;;;;;5053844;28;20024;-67
2021/10/18 02:01:32;;;;;;;34.05;14.60;;;8.10;99.90;;;;;;5052871;28;20059;-68
2021/10/18 02:03:58;;;;;;;40.05;15.13;;;8.10;99.90;;;;;;5053436;28;20165;-68
2021/10/18 02:06:23;;;;;;;40.30;15.02;;;8.10;99.90;;;;;;5052985;28;20493;-67
2021/10/18 02:08:49;;;;;;;39.28;14.90;;;8.10;99.90;;;;;;5052643;28;20032;-68
2021/10/18 02:11:15;;;;;;;32.05;13.88;;;8.10;99.90;;;;;;5051797;28;20028;-68
2021/10/18 02:13:40;;;;;;;42.00;14.43;;;8.20;99.90;;;;;;5053588;28;20032;-67
2021/10/18 02:16:06;;;;;;;36.13;14.02;;;8.10;99.90;;;;;;5056982;28;20044;-68
2021/10/18 02:18:32;;;;;;;37.47;15.02;;;8.20;99.90;;;;;;5053471;28;20116;-67
2021/10/18 02:21:01;;;;;;;37.95;14.48;;;8.20;99.90;;;;;;5052258;28;20037;-68
2021/10/18 02:23:30;;;;;;;42.17;15.93;;;8.20;99.90;;;;;;5050892;28;20032;-67
2021/10/18 02:25:56;;;;;;;40.92;14.35;;;8.10;99.90;;;;;;5053696;28;20024;-68
2021/10/18 02:28:22;;;;;;;38.70;14.07;;;8.20;99.90;;;;;;5052010;28;20036;-68
2021/10/18 02:30:49;;;;;;;35.78;14.25;;;8.20;99.90;;;;;;5051855;28;20048;-67
2021/10/18 02:33:15;;;;;;;42.92;16.00;;;8.30;99.90;;;;;;5050892;28;20158;-67
2021/10/18 02:35:41;;;;;;;40.17;15.10;;;8.20;99.90;;;;;;5049585;28;20043;-67
2021/10/18 02:38:06;;;;;;;60.17;22.35;;;8.20;99.90;;;;;;5050883;28;20072;-67
2021/10/18 02:40:32;;;;;;;47.65;17.40;;;8.20;99.90;;;;;;5056575;28;20028;-67
2021/10/18 02:42:58;;;;;;;42.45;16.48;;;8.20;99.90;;;;;;5052742;28;20033;-67
2021/10/18 02:45:23;;;;;;;39.53;14.95;;;8.20;99.90;;;;;;5051875;28;20035;-67
2021/10/18 02:47:49;;;;;;;37.65;15.02;;;8.20;99.90;;;;;;5054594;28;20032;-67
2021/10/18 02:50:14;;;;;;;42.58;15.77;;;8.20;99.90;;;;;;5052416;28;20028;-67
2021/10/18 02:52:40;;;;;;;44.95;15.13;;;8.30;99.90;;;;;;5050683;28;20035;-67
2021/10/18 02:55:06;;;;;;;38.67;14.35;;;8.20;99.90;;;;;;5055450;28;20016;-67
2021/10/18 02:57:32;;;;;;;38.53;15.15;;;8.20;99.90;;;;;;5053603;28;20116;-67
2021/10/18 02:59:57;;;;;;;37.08;13.88;;;8.20;99.90;;;;;;5054753;28;20140;-67
2021/10/18 03:02:23;;;;;;;37.67;14.60;;;8.20;99.90;;;;;;5060999;28;20049;-67
2021/10/18 03:04:49;;;;;;;40.20;15.43;;;8.20;99.90;;;;;;5061550;28;20078;-67
2021/10/18 03:07:14;;;;;;;39.20;14.75;;;8.20;99.90;;;;;;5052785;28;20028;-67
2021/10/18 03:09:40;;;;;;;42.92;14.82;;;8.20;99.90;;;;;;5048022;28;20105;-67
2021/10/18 03:12:06;;;;;;;38.25;14.93;;;8.20;99.90;;;;;;5049012;28;20124;-68
2021/10/18 03:14:31;;;;;;;40.35;14.98;;;8.20;99.90;;;;;;5052564;28;20047;-67
2021/10/18 03:16:57;;;;;;;36.40;14.40;;;8.30;99.90;;;;;;5050216;28;20382;-67
2021/10/18 03:19:22;;;;;;;51.90;17.52;;;8.30;99.90;;;;;;5053631;28;21018;-66
2021/10/18 03:21:48;;;;;;;40.70;16.90;;;8.20;99.90;;;;;;5054262;28;20537;-67
2021/10/18 03:24:14;;;;;;;41.30;15.85;;;8.20;99.90;;;;;;5048962;28;20567;-67
2021/10/18 03:26:39;;;;;;;38.67;14.32;;;8.30;99.90;;;;;;5052173;28;20055;-66
2021/10/18 03:29:05;;;;;;;39.42;15.35;;;8.30;99.90;;;;;;5049820;28;20046;-67
2021/10/18 03:31:31;;;;;;;40.00;16.48;;;8.30;99.90;;;;;;5050384;28;20044;-67
2021/10/18 03:33:56;;;;;;;39.28;14.80;;;8.30;99.90;;;;;;5051872;28;20020;-67
2021/10/18 03:36:22;;;;;;;43.53;15.45;;;8.30;99.90;;;;;;5052262;28;20123;-67
2021/10/18 03:38:48;;;;;;;36.05;14.30;;;8.30;99.90;;;;;;5049028;28;20059;-67
2021/10/18 03:41:14;;;;;;;45.60;14.80;;;8.30;99.90;;;;;;5051701;28;21838;-67
2021/10/18 03:43:40;;;;;;;37.35;14.93;;;8.30;99.90;;;;;;5051158;28;20024;-67
2021/10/18 03:46:05;;;;;;;37.45;15.05;;;8.20;99.90;;;;;;5052083;28;20048;-67
2021/10/18 03:48:32;;;;;;;40.33;15.90;;;8.30;99.90;;;;;;5051233;28;20031;-67
2021/10/18 03:50:57;;;;;;;38.30;14.63;;;8.30;99.90;;;;;;5046721;28;20039;-67
2021/10/18 03:53:23;;;;;;;42.78;14.50;;;8.30;99.90;;;;;;5049004;28;20025;-67
2021/10/18 03:55:49;;;;;;;38.47;14.15;;;8.30;99.90;;;;;;5052808;28;20129;-67
2021/10/18 03:58:15;;;;;;;35.60;13.48;;;8.30;99.90;;;;;;5052884;28;20058;-67
2021/10/18 04:00:41;;;;;;;33.17;14.32;;;8.30;99.90;;;;;;5049683;28;20049;-67
2021/10/18 04:03:07;;;;;;;39.63;14.63;;;8.30;99.90;;;;;;5051696;28;20040;-68
2021/10/18 04:05:33;;;;;;;32.45;12.93;;;8.30;99.90;;;;;;5048394;28;20016;-67
2021/10/18 04:07:59;;;;;;;36.95;15.73;;;8.30;99.90;;;;;;5052230;28;20029;-67
2021/10/18 04:10:24;;;;;;;39.00;13.68;;;8.40;99.90;;;;;;5050284;28;20032;-67
2021/10/18 04:12:50;;;;;;;46.97;15.27;;;8.30;99.90;;;;;;5048575;28;20108;-67
2021/10/18 04:15:16;;;;;;;35.67;13.90;;;8.30;99.90;;;;;;5055212;28;20075;-67
2021/10/18 04:17:42;;;;;;;32.85;13.48;;;8.30;99.90;;;;;;5055428;28;20327;-67
2021/10/18 04:20:09;;;;;;;34.63;14.98;;;8.30;99.90;;;;;;5053916;28;20120;-67
2021/10/18 04:22:34;;;;;;;36.38;13.60;;;8.30;99.90;;;;;;5049851;28;20501;-67
2021/10/18 04:25:00;;;;;;;43.22;14.48;;;8.40;99.90;;;;;;5050167;28;20025;-67
2021/10/18 04:27:26;;;;;;;35.38;14.50;;;8.40;99.90;;;;;;5052506;28;20024;-67
2021/10/18 04:29:52;;;;;;;36.92;14.82;;;8.30;99.90;;;;;;5049264;28;20035;-67
2021/10/18 04:32:18;;;;;;;37.58;14.13;;;8.30;99.90;;;;;;5050444;28;20382;-67
2021/10/18 04:34:44;;;;;;;34.85;14.18;;;8.40;99.90;;;;;;5049242;28;20040;-67
2021/10/18 04:37:10;;;;;;;35.05;13.98;;;8.40;99.90;;;;;;5050515;28;20036;-67
2021/10/18 04:39:36;;;;;;;35.13;13.88;;;8.30;99.90;;;;;;5049011;28;20946;-67
2021/10/18 04:42:02;;;;;;;38.55;14.75;;;8.20;99.90;;;;;;5053395;28;20107;-67
2021/10/18 04:44:27;;;;;;;30.70;12.65;;;8.20;99.90;;;;;;5067980;28;20103;-68
2021/10/18 04:46:53;;;;;;;33.15;12.48;;;8.20;99.90;;;;;;5063999;28;20039;-67
2021/10/18 04:49:19;;;;;;;30.45;12.65;;;8.20;99.90;;;;;;5062418;28;20850;-67
2021/10/18 04:51:45;;;;;;;31.08;11.27;;;8.30;99.90;;;;;;5057940;28;20389;-67
2021/10/18 04:54:11;;;;;;;28.65;11.82;;;8.20;99.90;;;;;;5069259;28;20032;-67
2021/10/18 04:56:36;;;;;;;35.55;12.27;;;8.20;99.90;;;;;;5055965;28;20036;-67
2021/10/18 04:59:02;;;;;;;30.10;11.82;;;8.20;99.90;;;;;;5063153;28;20024;-67
2021/10/18 05:01:28;;;;;;;30.00;12.60;;;8.20;99.90;;;;;;5061309;28;20049;-67
2021/10/18 05:03:53;;;;;;;35.10;14.45;;;8.20;99.90;;;;;;5054397;28;20063;-67
2021/10/18 05:06:19;;;;;;;31.83;12.02;;;8.20;99.90;;;;;;5063626;28;20506;-67
2021/10/18 05:08:45;;;;;;;29.23;12.00;;;8.20;99.90;;;;;;5052158;28;20553;-67
2021/10/18 05:11:10;;;;;;;35.50;12.10;;;8.20;99.90;;;;;;5060437;28;20040;-67
2021/10/18 05:13:36;;;;;;;34.42;13.02;;;8.20;99.90;;;;;;5058515;28;20028;-67
2021/10/18 05:16:02;;;;;;;25.05;10.43;;;8.20;99.90;;;;;;5052238;28;20024;-67
2021/10/18 05:18:27;;;;;;;31.85;12.95;;;8.30;99.90;;;;;;5063432;28;20126;-67
2021/10/18 05:20:53;;;;;;;33.38;11.98;;;8.30;99.90;;;;;;5055702;28;20033;-67
2021/10/18 05:23:18;;;;;;;28.05;11.15;;;8.30;99.90;;;;;;5053572;28;20038;-67
2021/10/18 05:25:44;;;;;;;28.90;12.38;;;8.20;99.90;;;;;;5058411;28;20028;-67
2021/10/18 05:28:10;;;;;;;32.45;12.52;;;8.20;99.90;;;;;;5060448;28;20125;-67
2021/10/18 05:30:36;;;;;;;31.67;12.10;;;8.30;99.90;;;;;;5065842;28;20044;-67
2021/10/18 05:33:03;;;;;;;27.92;11.32;;;8.20;99.90;;;;;;5068279;28;20032;-67
2021/10/18 05:35:29;;;;;;;34.00;14.38;;;8.30;99.90;;;;;;5064205;28;20978;-68
2021/10/18 05:37:55;;;;;;;35.47;15.30;;;8.30;99.90;;;;;;5053768;28;20029;-67
2021/10/18 05:40:23;;;;;;;30.02;12.88;;;8.30;99.90;;;;;;5054757;28;20035;-68
2021/10/18 05:42:50;;;;;;;29.88;11.75;;;8.30;99.90;;;;;;5055386;28;21186;-67
2021/10/18 05:45:16;;;;;;;30.85;11.70;;;8.20;99.90;;;;;;5059326;28;20043;-67
2021/10/18 05:47:51;;;;;;;30.02;12.35;;;8.10;99.90;;;;;;5060842;28;20044;-67
2021/10/18 05:50:16;;;;;;;30.23;11.27;;;8.10;99.90;;;;;;5057129;28;20033;-67
2021/10/18 05:52:42;;;;;;;31.38;12.93;;;8.10;99.90;;;;;;5058087;28;20113;-67
2021/10/18 05:55:08;;;;;;;26.63;11.85;;;8.10;99.90;;;;;;5052320;28;20126;-66
2021/10/18 05:58:03;;;;;;;30.92;12.55;;;8.00;99.90;;;;;;5055618;28;21640;-67
2021/10/18 06:00:34;;;;;;;34.85;13.60;;;8.00;99.90;;;;;;5055444;28;20448;-67
2021/10/18 06:02:59;;;;;;;28.40;11.35;;;8.00;99.90;;;;;;5060427;28;20024;-67
2021/10/18 06:05:26;;;;;;;28.50;10.95;;;8.00;99.90;;;;;;5057014;28;20398;-67
2021/10/18 06:07:51;;;;;;;31.05;12.52;;;8.00;99.90;;;;;;5063832;28;20027;-67
2021/10/18 06:10:17;;;;;;;29.92;12.55;;;8.10;99.90;;;;;;5056054;28;20037;-67
2021/10/18 06:12:44;;;;;;;28.02;11.40;;;8.10;99.90;;;;;;5060176;28;20025;-67
2021/10/18 06:15:11;;;;;;;30.83;13.13;;;8.10;99.90;;;;;;5061874;28;20032;-67
2021/10/18 06:17:38;;;;;;;32.60;11.73;;;8.10;99.90;;;;;;5067536;28;20371;-67
2021/10/18 06:20:05;;;;;;;29.38;12.23;;;8.20;99.90;;;;;;5063501;28;20540;-67
2021/10/18 06:22:31;;;;;;;30.05;11.63;;;8.10;99.90;;;;;;5067331;28;20103;-67
2021/10/18 06:24:56;;;;;;;30.00;12.43;;;8.10;99.90;;;;;;5068938;28;20135;-67
2021/10/18 06:27:23;;;;;;;33.30;11.70;;;8.10;99.90;;;;;;5061697;28;20021;-67
2021/10/18 06:29:49;;;;;;;29.17;11.65;;;8.10;99.90;;;;;;5062327;28;20029;-67
2021/10/18 06:32:15;;;;;;;33.35;12.52;;;8.00;99.90;;;;;;5062530;28;20039;-67
2021/10/18 06:34:41;;;;;;;33.35;14.57;;;8.00;99.90;;;;;;5058907;28;20036;-67
2021/10/18 06:37:07;;;;;;;29.25;12.32;;;8.10;99.90;;;;;;5063925;28;20039;-67
2021/10/18 06:39:33;;;;;;;29.83;13.30;;;8.00;99.90;;;;;;5065126;28;20052;-67
2021/10/18 06:41:58;;;;;;;33.08;12.65;;;8.00;99.90;;;;;;5061219;28;20032;-68
2021/10/18 06:44:24;;;;;;;30.63;12.45;;;8.00;99.90;;;;;;5075462;28;20032;-68
2021/10/18 06:46:49;;;;;;;32.35;13.10;;;8.00;99.90;;;;;;5065680;28;20017;-67
2021/10/18 06:49:15;;;;;;;32.25;11.52;;;7.90;99.90;;;;;;5066785;28;20103;-67
2021/10/18 06:51:47;;;;;;;30.88;12.30;;;7.90;99.90;;;;;;5065111;28;20123;-68
2021/10/18 06:54:13;;;;;;;26.90;11.85;;;8.00;99.90;;;;;;5070786;28;20099;-67
2021/10/18 06:56:44;;;;;;;33.65;12.68;;;8.00;99.90;;;;;;5054133;28;20029;-67
2021/10/18 06:59:14;;;;;;;29.45;11.07;;;8.00;99.90;;;;;;5064771;28;20036;-67
2021/10/18 07:01:40;;;;;;;31.30;11.63;;;8.00;99.90;;;;;;5065614;28;20044;-70
2021/10/18 07:04:07;;;;;;;28.20;11.88;;;8.10;99.90;;;;;;5066374;28;20082;-67
2021/10/18 07:06:33;;;;;;;27.70;10.70;;;8.10;99.90;;;;;;5061628;28;20020;-67
2021/10/18 07:08:58;;;;;;;29.30;11.07;;;8.10;99.90;;;;;;5060329;28;20029;-67
2021/10/18 07:11:25;;;;;;;30.45;11.77;;;8.00;99.90;;;;;;5057562;28;20082;-68
2021/10/18 07:13:51;;;;;;;29.35;12.32;;;8.10;99.90;;;;;;5064354;28;21791;-67
2021/10/18 07:16:16;;;;;;;27.40;10.93;;;8.10;99.90;;;;;;5069981;28;20081;-67
2021/10/18 07:18:43;;;;;;;37.50;17.25;;;8.10;99.90;;;;;;5064773;28;20090;-67
2021/10/18 07:21:09;;;;;;;27.70;11.63;;;8.10;99.90;;;;;;5067638;28;20570;-67
2021/10/18 07:23:35;;;;;;;28.50;13.00;;;8.10;99.90;;;;;;5054427;28;20034;-68
2021/10/18 07:26:03;;;;;;;25.63;11.20;;;8.10;99.90;;;;;;5051458;28;20052;-68
2021/10/18 07:28:28;;;;;;;25.80;11.45;;;8.00;99.90;;;;;;5052906;28;20893;-67
2021/10/18 07:30:56;;;;;;;28.17;10.73;;;8.00;99.90;;;;;;5053816;28;20033;-67
2021/10/18 07:33:22;;;;;;;26.23;9.00;;;7.90;99.90;;;;;;5053470;28;20107;-67
2021/10/18 07:35:47;;;;;;;26.05;10.68;;;7.90;99.90;;;;;;5053813;28;21020;-66
2021/10/18 07:38:13;;;;;;;24.80;9.80;;;8.00;99.90;;;;;;5065724;28;20032;-67
2021/10/18 07:40:39;;;;;;;21.08;9.18;;;8.00;99.90;;;;;;5067473;28;20115;-68
2021/10/18 07:43:06;;;;;;;25.85;9.98;;;8.00;99.90;;;;;;5057445;28;20040;-67
2021/10/18 07:45:32;;;;;;;23.45;10.48;;;8.00;99.90;;;;;;5066775;28;20020;-67
2021/10/18 07:47:58;;;;;;;28.73;10.45;;;8.00;99.90;;;;;;5066447;28;20220;-67
2021/10/18 07:50:24;;;;;;;23.45;9.95;;;8.00;99.90;;;;;;5057595;28;20051;-67
2021/10/18 07:52:50;;;;;;;23.75;10.30;;;7.90;99.90;;;;;;5062151;28;20493;-67
2021/10/18 07:55:17;;;;;;;24.58;10.40;;;7.90;99.90;;;;;;5052327;28;20055;-67
2021/10/18 07:57:46;;;;;;;27.58;10.80;;;8.00;99.90;;;;;;5052376;28;20029;-67
2021/10/18 08:00:12;;;;;;;30.20;11.13;;;8.00;99.90;;;;;;5053663;28;20072;-67
2021/10/18 08:02:38;;;;;;;24.80;10.00;;;8.10;99.90;;;;;;5054153;28;20078;-68
2021/10/18 08:05:04;;;;;;;40.90;14.65;;;8.10;99.90;;;;;;5055256;28;20024;-67
2021/10/18 08:07:35;;;;;;;35.83;13.27;;;8.10;99.90;;;;;;5059569;28;20491;-66
2021/10/18 08:10:04;;;;;;;41.40;14.77;;;8.20;99.90;;;;;;5055678;28;20016;-67
2021/10/18 08:12:30;;;;;;;25.42;10.43;;;8.20;99.90;;;;;;5055379;28;20055;-67
2021/10/18 08:14:56;;;;;;;29.85;12.43;;;8.30;99.90;;;;;;5053866;28;20033;-67
2021/10/18 08:17:21;;;;;;;35.00;17.75;;;8.30;99.90;;;;;;5053423;28;20112;-67
2021/10/18 08:19:47;;;;;;;34.70;22.42;;;8.30;99.90;;;;;;5055923;28;20048;-68
2021/10/18 08:22:13;;;;;;;30.30;16.17;;;8.20;99.90;;;;;;5054916;28;20093;-67
2021/10/18 08:24:38;;;;;;;25.83;10.35;;;8.20;99.90;;;;;;5054313;28;20040;-67
2021/10/18 08:27:04;;;;;;;22.48;9.95;;;8.20;99.90;;;;;;5052063;28;20147;-67
2021/10/18 08:29:30;;;;;;;26.50;10.20;;;8.10;99.90;;;;;;5051202;28;20485;-67
2021/10/18 08:31:55;;;;;;;21.63;9.48;;;8.10;99.90;;;;;;5055442;28;20043;-67
2021/10/18 08:34:21;;;;;;;23.42;9.50;;;8.00;99.90;;;;;;5054035;28;20033;-67
2021/10/18 08:36:46;;;;;;;22.85;9.45;;;8.00;99.90;;;;;;5056386;28;20031;-67
2021/10/18 08:41:42;;;;;;;19.05;9.07;;;8.10;99.90;;;;;;5064296;28;20028;-67
2021/10/18 08:44:17;;;;;;;24.02;9.73;;;8.20;99.90;;;;;;5061926;28;20067;-67
2021/10/18 08:46:47;;;;;;;23.40;9.18;;;8.20;99.90;;;;;;5065066;28;20027;-67
2021/10/18 08:49:13;;;;;;;23.77;9.80;;;8.20;99.90;;;;;;5060933;28;20020;-67
2021/10/18 08:51:39;;;;;;;21.77;9.25;;;8.30;99.90;;;;;;5060820;28;20405;-68
2021/10/18 08:54:07;;;;;;;22.13;9.30;;;8.30;99.90;;;;;;5060973;28;20114;-67
2021/10/18 08:56:33;;;;;;;20.58;9.38;;;8.20;99.90;;;;;;5068011;28;20027;-67
2021/10/18 08:58:59;;;;;;;23.52;10.75;;;8.10;99.90;;;;;;5057707;28;20029;-67
2021/10/18 09:01:40;;;;;;;25.17;9.50;;;8.10;99.90;;;;;;5056983;28;20040;-67
2021/10/18 09:04:37;;;;;;;23.13;9.38;;;8.10;99.90;;;;;;5102462;28;20115;-67
2021/10/18 09:07:12;;;;;;;20.33;8.75;;;8.20;99.90;;;;;;5060268;28;20032;-68
2021/10/18 09:09:54;;;;;;;35.85;8.57;;;8.20;99.90;;;;;;5067664;28;20582;-67
2021/10/18 09:12:32;;;;;;;23.67;10.65;;;8.30;99.50;;;;;;5070977;28;20024;-67
2021/10/18 09:15:22;;;;;;;22.20;9.85;;;8.30;99.90;;;;;;5069333;28;20036;-67
2021/10/18 09:17:57;;;;;;;22.30;8.68;;;8.30;99.70;;;;;;5067449;28;20134;-67
2021/10/18 09:20:25;;;;;;;19.08;9.10;;;8.30;99.60;;;;;;5070702;28;20113;-67
2021/10/18 09:22:53;;;;;;;23.48;9.15;;;8.40;99.70;;;;;;5068608;28;20438;-68
2021/10/18 09:25:39;;;;;;;22.03;9.53;;;8.30;99.70;;;;;;5058710;28;20039;-68
2021/10/18 09:28:13;;;;;;;18.55;8.98;;;8.30;99.80;;;;;;5066080;28;20283;-67
2021/10/18 09:30:41;;;;;;;30.35;10.45;;;8.40;99.80;;;;;;5065774;28;20505;-67
2021/10/18 09:33:27;;;;;;;18.75;9.05;;;8.40;99.80;;;;;;5068269;28;20021;-68
2021/10/18 09:35:54;;;;;;;22.02;9.02;;;8.40;99.80;;;;;;5066911;28;20040;-68
2021/10/18 09:38:21;;;;;;;24.73;9.90;;;8.40;99.70;;;;;;5070219;28;20017;-67
2021/10/18 09:40:49;;;;;;;22.95;9.02;;;8.40;99.70;;;;;;5070781;28;20082;-67
2021/10/18 09:43:29;;;;;;;21.65;9.45;;;8.50;99.90;;;;;;5064819;28;20027;-67
2021/10/18 09:46:04;;;;;;;22.00;9.43;;;8.50;99.80;;;;;;5069175;28;20028;-67
2021/10/18 10:53:53;;;;;;;22.33;10.20;;;9.00;98.50;;;;;;5070040;28;20453;-67
2021/10/18 10:56:43;;;;;;;20.10;9.48;;;8.90;98.40;;;;;;5066731;28;20016;-67
2021/10/18 10:59:33;;;;;;;24.88;11.63;;;9.00;98.10;;;;;;5067979;28;20107;-67
2021/10/18 11:02:11;;;;;;;23.92;11.93;;;9.00;98.40;;;;;;5062981;28;20041;-67
2021/10/18 11:04:41;;;;;;;;;;;9.00;98.00;;;;;;5064980;28;20043;-67
2021/10/18 11:07:11;;;;;;;20.83;8.68;;;9.10;98.00;;;;;;5063676;28;19923;-67
2021/10/18 11:09:47;;;;;;;22.02;9.52;;;9.10;97.60;;;;;;5062998;28;20876;-67
2021/10/18 11:12:25;;;;;;;20.90;10.13;;;9.10;97.70;;;;;;5079290;28;20105;-67
2021/10/18 11:14:50;;;;;;;22.73;10.73;;;9.10;98.00;;;;;;5065880;28;20020;-67
2021/10/18 11:17:16;;;;;;;23.63;10.50;;;9.00;97.60;;;;;;5069143;28;20021;-67
2021/10/18 11:19:51;;;;;;;25.52;11.30;;;9.00;98.00;;;;;;5067764;28;20039;-67
2021/10/18 11:22:28;;;;;;;22.77;10.60;;;9.00;98.00;;;;;;5059146;28;20020;-68
2021/10/18 11:24:54;;;;;;;27.10;11.30;;;9.00;98.10;;;;;;5052323;28;20024;-68
2021/10/18 11:27:31;;;;;;;24.70;12.05;;;9.10;98.40;;;;;;5066850;28;20083;-67
2021/10/18 11:29:59;;;;;;;21.48;10.35;;;9.10;98.40;;;;;;5059989;28;20524;-68
2021/10/18 11:32:25;;;;;;;25.20;12.40;;;9.10;98.40;;;;;;5069503;28;20037;-67
2021/10/18 11:35:06;;;;;;;21.45;11.57;;;9.10;98.80;;;;;;5052855;28;20031;-67
2021/10/18 11:37:59;;;;;;;24.10;11.40;;;9.00;98.00;;;;;;5056455;28;20079;-67
2021/10/18 11:40:36;;;;;;;23.88;11.63;;;9.00;98.30;;;;;;5065542;28;20393;-67
2021/10/18 11:43:11;;;;;;;25.08;11.35;;;9.10;97.90;;;;;;5068419;28;20055;-67
2021/10/18 11:45:42;;;;;;;22.35;10.85;;;9.20;98.10;;;;;;5082035;28;20066;-68
2021/10/18 11:48:09;;;;;;;23.33;10.35;;;9.30;98.20;;;;;;5069409;28;20085;-68
2021/10/18 11:50:37;;;;;;;25.17;10.52;;;9.30;97.80;;;;;;5067479;28;20020;-69
2021/10/18 11:53:10;;;;;;;21.08;10.73;;;9.30;97.60;;;;;;5068894;28;20024;-67
2021/10/18 11:55:39;;;;;;;26.10;11.48;;;9.30;97.20;;;;;;5056517;28;20389;-67
2021/10/18 11:58:05;;;;;;;25.23;11.45;;;9.40;98.10;;;;;;5069079;28;20028;-68
2021/10/18 12:00:41;;;;;;;28.95;15.55;;;9.40;97.90;;;;;;5066309;28;20063;-68
2021/10/18 12:03:11;;;;;;;21.35;10.00;;;9.50;97.50;;;;;;5058606;28;20431;-71
2021/10/18 12:05:45;;;;;;;20.20;10.35;;;9.40;96.80;;;;;;5068392;28;20050;-68
2021/10/18 12:08:18;;;;;;;21.17;10.18;;;9.40;97.20;;;;;;5068717;28;20472;-67
2021/10/18 12:10:53;;;;;;;22.48;11.05;;;9.40;97.40;;;;;;5064338;28;20057;-67
2021/10/18 12:13:26;;;;;;;24.50;10.18;;;9.50;97.30;;;;;;5069514;28;20028;-67
2021/10/18 12:16:04;;;;;;;21.77;10.57;;;9.50;97.20;;;;;;5065620;28;20024;-67
2021/10/18 12:18:35;;;;;;;23.83;10.70;;;9.50;97.60;;;;;;5066527;28;20043;-67
2021/10/18 12:21:05;;;;;;;21.17;10.93;;;9.50;97.90;;;;;;5060314;28;20029;-67
2021/10/18 12:23:36;;;;;;;25.63;11.65;;;9.50;97.60;;;;;;5066009;28;20457;-67
2021/10/18 12:26:06;;;;;;;21.02;10.75;;;9.50;97.10;;;;;;5064649;28;20496;-67
2021/10/18 12:28:40;;;;;;;22.55;10.95;;;9.60;97.10;;;;;;5068448;28;20024;-67
2021/10/18 12:31:23;;;;;;;21.10;10.80;;;9.60;96.90;;;;;;5065504;28;20033;-67
2021/10/18 12:34:03;;;;;;;23.55;11.25;;;9.70;97.00;;;;;;5070656;28;20662;-67
2021/10/18 12:36:30;;;;;;;23.40;12.30;;;9.70;97.10;;;;;;5064209;28;20033;-67
2021/10/18 12:38:56;;;;;;;23.13;12.23;;;9.70;97.50;;;;;;5072394;28;20470;-68
2021/10/18 12:41:23;;;;;;;23.35;11.95;;;9.70;97.70;;;;;;5068896;28;20029;-68
2021/10/18 12:43:50;;;;;;;22.33;10.25;;;9.70;97.00;;;;;;5069868;28;20056;-67
2021/10/18 12:46:18;;;;;;;23.83;11.52;;;9.70;97.20;;;;;;5067048;28;20497;-68
2021/10/18 12:49:03;;;;;;;23.90;11.60;;;9.80;97.60;;;;;;5057322;28;20036;-68
2021/10/18 12:51:31;;;;;;;22.83;11.73;;;9.90;97.60;;;;;;5069568;28;20040;-68
2021/10/18 12:53:57;;;;;;;;;;;10.00;97.00;;;;;;5071360;28;20104;-67
2021/10/18 12:56:25;;;;;;;25.45;11.55;;;10.00;97.40;;;;;;5064209;28;20014;-67
2021/10/18 12:59:12;;;;;;;21.23;11.32;;;10.10;97.40;;;;;;5067782;28;20039;-67
2021/10/18 13:01:38;;;;;;;23.08;11.07;;;10.20;96.90;;;;;;5067986;28;20040;-68
2021/10/18 13:04:18;;;;;;;23.55;11.18;;;10.20;97.10;;;;;;5062544;28;20382;-67
2021/10/18 13:06:43;;;;;;;24.42;11.98;;;10.30;96.60;;;;;;5071663;28;20082;-68
2021/10/18 13:09:09;;;;;;;22.73;11.32;;;10.20;96.60;;;;;;5072172;28;20064;-67
2021/10/18 13:11:40;;;;;;;25.75;12.02;;;10.20;96.40;;;;;;5069725;28;20436;-67
2021/10/18 13:14:06;;;;;;;24.48;12.02;;;10.30;96.10;;;;;;5072043;28;20070;-67
2021/10/18 13:16:32;;;;;;;22.98;12.07;;;10.30;96.00;;;;;;5066232;28;20056;-67
2021/10/18 13:18:57;;;;;;;25.48;11.40;;;10.30;95.90;;;;;;5070424;28;20063;-67
2021/10/18 13:21:23;;;;;;;24.52;11.80;;;10.30;95.70;;;;;;5071602;28;20059;-67
2021/10/18 13:23:48;;;;;;;26.08;12.30;;;10.40;95.50;;;;;;5069250;28;20032;-67
2021/10/18 13:26:14;;;;;;;22.20;11.38;;;10.40;95.40;;;;;;5072285;28;20397;-68
2021/10/18 13:28:40;;;;;;;23.35;11.98;;;10.40;95.10;;;;;;5064726;28;20104;-68
2021/10/18 13:31:08;;;;;;;22.58;12.00;;;10.40;95.80;;;;;;5057286;28;20029;-68
2021/10/18 13:33:33;;;;;;;21.90;11.60;;;10.40;95.30;;;;;;5064509;28;20035;-68
2021/10/18 13:36:00;;;;;;;21.30;11.38;;;10.40;95.40;;;;;;5060131;28;20029;-67
2021/10/18 13:38:25;;;;;;;22.27;12.68;;;10.50;95.30;;;;;;5070666;28;20028;-68
2021/10/18 13:40:51;;;;;;;25.05;12.40;;;10.50;95.10;;;;;;5065604;28;20631;-67
2021/10/18 13:43:17;;;;;;;24.30;12.60;;;10.40;95.60;;;;;;5064446;28;20385;-67
2021/10/18 13:45:42;;;;;;;24.73;13.10;;;10.40;95.10;;;;;;5066753;28;20036;-67
2021/10/18 13:48:08;;;;;;;22.67;11.75;;;10.40;95.20;;;;;;5071317;28;20481;-67
2021/10/18 13:50:35;;;;;;;24.98;12.75;;;10.40;95.50;;;;;;5063102;28;20033;-67